Time;durP1;ratioP1;P1;durP2;ratioP2;P2;SDS_P1;SDS_P2;PMS_P1;PMS_P2;Temp;Humidity;BMP_temperature;BMP_pressure;BME280_temperature;BME280_humidity;BME280_pressure;Samples;Min_cycle;Max_cycle;Signal;HPM_P1;HPM_P2
2023/10/06 00:02:28;;;;;;;1.23;0.60;;;;;;;17.38;71.09;95969.03;5135333;27;21049;-57
2023/10/06 00:04:58;;;;;;;0.80;0.60;;;;;;;17.51;71.31;95966.34;5135603;27;20522;-57
2023/10/06 00:07:27;;;;;;;0.50;0.30;;;;;;;17.51;70.54;95962.88;5134412;27;21149;-57
2023/10/06 00:09:56;;;;;;;0.50;0.30;;;;;;;17.55;70.52;95953.19;5135044;27;20449;-57
2023/10/06 00:12:26;;;;;;;0.40;0.40;;;;;;;17.56;70.75;95960.94;5135452;27;20439;-57
2023/10/06 00:14:57;;;;;;;0.40;0.20;;;;;;;17.48;70.13;95953.53;5134700;27;20431;-57
2023/10/06 00:17:28;;;;;;;0.40;0.30;;;;;;;17.34;71.09;95951.94;5135451;27;21082;-57
2023/10/06 00:19:59;;;;;;;0.40;0.20;;;;;;;17.43;70.56;95960.91;5134572;27;20528;-57
2023/10/06 00:22:29;;;;;;;0.97;0.40;;;;;;;17.26;71.62;95961.47;5135305;27;20442;-57
2023/10/06 00:24:59;;;;;;;0.50;0.30;;;;;;;17.01;72.93;95959.22;5134816;27;20435;-57
2023/10/06 00:27:30;;;;;;;0.50;0.50;;;;;;;17.20;71.56;95957.31;5134902;27;20462;-57
2023/10/06 00:30:00;;;;;;;0.60;0.50;;;;;;;17.22;71.50;95943.59;5134528;27;20434;-57
2023/10/06 00:32:28;;;;;;;0.40;0.30;;;;;;;17.26;71.67;95945.38;5134496;27;20519;-57
2023/10/06 00:35:11;;;;;;;0.40;0.30;;;;;;;17.41;70.66;95952.34;5134807;27;20438;-56
2023/10/06 00:37:40;;;;;;;0.50;0.30;;;;;;;17.44;70.47;95960.59;5134413;27;20442;-57
2023/10/06 00:40:19;;;;;;;0.53;0.53;;;;;;;17.37;71.48;95964.75;5134861;27;20557;-57
2023/10/06 00:42:53;;;;;;;0.50;0.40;;;;;;;17.20;72.21;95959.97;5134639;27;20435;-57
2023/10/06 00:45:24;;;;;;;0.80;0.40;;;;;;;17.13;72.72;95960.34;5134748;27;20434;-57
2023/10/06 00:47:53;;;;;;;0.60;0.43;;;;;;;16.79;74.68;95951.03;5134407;27;20427;-57
2023/10/06 00:50:24;;;;;;;0.60;0.40;;;;;;;16.82;74.51;95953.13;5121983;27;20431;-57
2023/10/06 00:52:55;;;;;;;0.50;0.30;;;;;;;17.15;73.15;95957.38;5134571;27;20786;-57
2023/10/06 00:55:26;;;;;;;0.50;0.30;;;;;;;16.96;74.56;95945.91;5134694;27;20438;-57
2023/10/06 00:57:56;;;;;;;0.50;0.47;;;;;;;16.95;74.08;95942.44;5134453;27;20462;-57
2023/10/06 01:00:25;;;;;;;0.77;0.60;;;;;;;17.04;73.99;95958.63;5133128;27;20462;-57
2023/10/06 01:02:53;;;;;;;2.40;0.40;;;;;;;17.00;73.92;95942.34;5134219;27;20470;-57
2023/10/06 01:05:25;;;;;;;0.63;0.53;;;;;;;16.91;74.43;95954.84;5133795;27;20557;-57
2023/10/06 01:07:54;;;;;;;0.50;0.30;;;;;;;16.62;73.85;95878.50;5134473;27;20962;-56
2023/10/06 01:10:27;;;;;;;1.60;0.33;;;;;;;16.89;74.49;95945.50;5133664;27;20435;-56
2023/10/06 01:12:59;;;;;;;0.50;0.50;;;;;;;16.69;75.90;95959.22;5134104;27;20831;-56
2023/10/06 01:15:29;;;;;;;0.50;0.30;;;;;;;16.53;76.94;95955.97;5134092;27;20442;-56
2023/10/06 01:17:59;;;;;;;3.40;0.80;;;;;;;16.33;78.63;95953.56;5134225;27;20458;-56
2023/10/06 01:20:33;;;;;;;0.60;0.40;;;;;;;16.44;78.13;95952.34;5133764;27;20544;-56
2023/10/06 01:23:10;;;;;;;1.57;1.13;;;;;;;16.48;78.17;95954.16;5133507;27;20440;-56
2023/10/06 01:25:39;;;;;;;0.50;0.40;;;;;;;16.43;78.83;95958.78;5134185;27;20439;-56
2023/10/06 01:28:12;;;;;;;1.53;0.47;;;;;;;16.09;82.23;95955.53;5133233;27;20453;-56
2023/10/06 01:30:41;;;;;;;0.50;0.30;;;;;;;16.17;82.70;95958.34;5133456;27;20492;-56
2023/10/06 01:33:10;;;;;;;0.50;0.40;;;;;;;16.42;81.65;95957.19;5133098;27;20530;-56
2023/10/06 01:35:42;;;;;;;1.23;0.40;;;;;;;16.32;82.84;95960.78;5133440;27;20437;-56
2023/10/06 01:38:22;;;;;;;0.70;0.50;;;;;;;16.36;82.00;95953.00;5133296;27;20850;-56
2023/10/06 01:40:53;;;;;;;0.50;0.30;;;;;;;16.31;82.54;95966.44;5133420;27;20466;-56
2023/10/06 01:43:24;;;;;;;0.80;0.80;;;;;;;16.22;83.24;95963.63;5133598;27;20487;-56
2023/10/06 01:45:53;;;;;;;0.80;0.60;;;;;;;16.19;83.58;95958.84;5132226;27;21065;-56
2023/10/06 01:48:24;;;;;;;1.03;0.73;;;;;;;16.15;83.64;95955.16;5133126;27;20493;-56
2023/10/06 01:50:54;;;;;;;0.63;0.53;;;;;;;16.14;83.37;95956.22;5133425;27;20862;-56
2023/10/06 01:53:31;;;;;;;0.60;0.60;;;;;;;16.16;83.20;95948.75;5133292;27;20438;-57
2023/10/06 01:56:06;;;;;;;2.90;0.60;;;;;;;16.23;81.64;95949.16;5132858;27;20438;-57
2023/10/06 01:58:39;;;;;;;2.60;2.40;;;;;;;16.23;81.54;95953.72;5133340;27;20527;-57
2023/10/06 02:01:07;;;;;;;2.83;0.67;;;;;;;16.16;81.35;95954.09;5106580;27;20474;-57
2023/10/06 02:03:40;;;;;;;0.40;0.30;;;;;;;16.28;80.47;95950.97;5132656;27;20501;-56
2023/10/06 02:06:15;;;;;;;3.13;0.30;;;;;;;16.21;81.07;95956.69;5132745;27;20434;-56
2023/10/06 02:08:52;;;;;;;0.60;0.57;;;;;;;16.23;81.80;95951.84;5132814;27;20433;-57
2023/10/06 02:11:28;;;;;;;0.70;0.70;;;;;;;16.29;81.05;95956.03;5132924;27;20529;-57
2023/10/06 02:13:57;;;;;;;0.60;0.50;;;;;;;16.33;80.46;95958.91;5132733;27;20426;-56
2023/10/06 02:16:27;;;;;;;0.70;0.37;;;;;;;16.33;80.02;95958.91;5132954;27;20451;-57
2023/10/06 02:18:56;;;;;;;4.30;0.57;;;;;;;16.34;79.90;95953.28;5106205;27;20889;-57
2023/10/06 02:21:25;;;;;;;0.40;0.30;;;;;;;16.33;80.65;95954.38;5132614;27;20466;-57
2023/10/06 02:23:59;;;;;;;2.00;1.47;;;;;;;16.34;80.15;95950.59;5132666;27;20442;-57
2023/10/06 02:26:28;;;;;;;0.73;0.73;;;;;;;16.32;79.71;95951.97;5133055;27;20430;-56
2023/10/06 02:28:57;;;;;;;0.60;0.57;;;;;;;16.35;80.26;95968.25;5133279;27;20570;-56
2023/10/06 02:31:27;;;;;;;1.33;0.63;;;;;;;16.23;80.24;95954.50;5132450;27;20462;-57
2023/10/06 02:33:58;;;;;;;2.20;0.30;;;;;;;16.24;80.43;95958.00;5132757;27;20481;-56
2023/10/06 02:36:26;;;;;;;0.50;0.30;;;;;;;16.12;80.74;95961.06;5132457;27;20431;-56
2023/10/06 02:38:56;;;;;;;0.87;0.47;;;;;;;16.15;80.86;95962.38;5132930;27;20545;-56
2023/10/06 02:41:25;;;;;;;0.87;0.67;;;;;;;16.10;81.08;95954.44;5131820;27;21120;-57
2023/10/06 02:44:05;;;;;;;0.50;0.40;;;;;;;16.01;82.41;95956.97;5131744;27;20442;-56
2023/10/06 02:46:36;;;;;;;0.47;0.30;;;;;;;16.16;81.18;95951.41;5128212;27;20488;-56
2023/10/06 02:49:08;;;;;;;0.50;0.40;;;;;;;16.20;80.50;95949.75;5127411;28;20439;-56
2023/10/06 02:51:47;;;;;;;0.40;0.20;;;;;;;16.06;81.17;95932.84;5132921;28;20439;-56
2023/10/06 02:54:28;;;;;;;7.00;2.67;;;;;;;16.17;80.61;95944.16;5132205;28;20863;-56
2023/10/06 02:56:57;;;;;;;0.90;0.90;;;;;;;16.26;80.26;95943.25;5132457;27;20438;-56
2023/10/06 02:59:28;;;;;;;0.40;0.30;;;;;;;16.17;80.92;95942.28;5132891;27;20487;-56
2023/10/06 03:02:00;;;;;;;0.97;0.53;;;;;;;16.15;80.58;95941.78;5131932;27;20877;-57
2023/10/06 03:04:29;;;;;;;0.97;0.97;;;;;;;16.16;81.16;95938.03;5132334;27;20522;-57
2023/10/06 03:06:59;;;;;;;0.80;0.70;;;;;;;16.26;80.33;95935.22;5131958;27;20442;-57
2023/10/06 03:09:36;;;;;;;0.77;0.77;;;;;;;16.15;80.90;95939.13;5132080;27;20442;-58
2023/10/06 03:12:12;;;;;;;0.73;0.70;;;;;;;15.88;83.29;95938.94;5132244;28;20434;-57
2023/10/06 03:14:41;;;;;;;0.93;0.80;;;;;;;15.71;85.43;95947.44;5132197;28;20944;-57
2023/10/06 03:17:12;;;;;;;3.43;0.60;;;;;;;15.60;86.78;95945.19;5131800;28;20426;-57
2023/10/06 03:19:41;;;;;;;1.33;0.40;;;;;;;15.74;84.10;95935.38;5131957;28;20434;-58
2023/10/06 03:22:12;;;;;;;0.50;0.50;;;;;;;15.54;86.00;95946.31;5132429;27;20502;-56
2023/10/06 03:24:53;;;;;;;0.70;0.60;;;;;;;15.59;85.11;95943.56;5136062;27;20439;-56
2023/10/06 03:27:23;;;;;;;0.70;0.47;;;;;;;15.33;86.80;95961.72;5135889;27;20930;-56
2023/10/06 03:29:55;;;;;;;1.63;0.90;;;;;;;14.96;88.56;95919.66;5136105;27;20559;-56
2023/10/06 03:32:32;;;;;;;0.57;0.30;;;;;;;15.07;89.40;95960.41;5136252;27;20446;-56
2023/10/06 03:35:11;;;;;;;0.70;0.50;;;;;;;14.93;92.31;95960.25;5135439;27;20866;-57
2023/10/06 03:37:51;;;;;;;0.50;0.50;;;;;;;14.97;93.15;95971.16;5135632;27;20449;-57
2023/10/06 03:40:25;;;;;;;0.50;0.50;;;;;;;15.08;91.40;95968.13;5135856;27;20431;-56
2023/10/06 03:42:54;;;;;;;0.97;0.97;;;;;;;15.02;91.33;95968.44;5131526;27;20471;-56
2023/10/06 03:45:31;;;;;;;3.73;0.60;;;;;;;15.01;92.05;95970.31;5126804;27;20439;-56
2023/10/06 03:48:11;;;;;;;2.70;0.70;;;;;;;14.99;92.21;95974.34;5135363;27;20430;-57
2023/10/06 03:50:41;;;;;;;0.90;0.90;;;;;;;15.04;91.57;95964.41;5135456;27;20441;-57
2023/10/06 03:53:14;;;;;;;0.40;0.30;;;;;;;15.09;92.37;95963.56;5135599;27;20947;-57
2023/10/06 03:55:45;;;;;;;1.83;0.70;;;;;;;15.19;91.19;95961.59;5135259;27;20532;-56
2023/10/06 03:58:16;;;;;;;0.83;0.70;;;;;;;15.23;90.25;95956.47;5135479;27;20434;-57
2023/10/06 04:00:48;;;;;;;0.77;0.50;;;;;;;15.19;91.03;95961.59;5135506;27;20459;-57
2023/10/06 04:03:18;;;;;;;0.60;0.30;;;;;;;15.16;90.17;95964.03;5135209;27;20998;-56
2023/10/06 04:05:49;;;;;;;0.63;0.50;;;;;;;14.67;92.99;95945.53;5135084;27;20536;-57
2023/10/06 04:08:20;;;;;;;0.50;0.30;;;;;;;15.04;91.66;95964.41;5135843;27;20435;-57
2023/10/06 04:10:54;;;;;;;0.50;0.30;;;;;;;15.14;90.79;95969.66;5135302;27;20970;-57
2023/10/06 04:13:23;;;;;;;0.77;0.40;;;;;;;15.10;91.76;95962.50;5134698;27;20441;-57
2023/10/06 04:15:52;;;;;;;1.17;0.87;;;;;;;14.90;94.08;95968.03;5135397;27;21003;-57
2023/10/06 04:18:23;;;;;;;2.50;0.50;;;;;;;14.79;96.69;95969.19;5134969;27;20788;-57
2023/10/06 04:20:53;;;;;;;0.60;0.50;;;;;;;14.39;98.50;95932.94;5135100;27;20439;-56
2023/10/06 04:23:23;;;;;;;3.90;2.30;;;;;;;14.25;100.00;95955.91;5134840;27;20989;-56
2023/10/06 04:25:56;;;;;;;6.27;5.77;;;;;;;13.87;100.00;95890.84;5135042;27;20783;-56
2023/10/06 04:28:27;;;;;;;2.40;2.20;;;;;;;14.26;100.00;95942.34;5134456;27;20442;-56
2023/10/06 04:31:00;;;;;;;2.93;2.73;;;;;;;14.76;96.97;95969.72;5134959;27;20427;-55
2023/10/06 04:33:30;;;;;;;1.73;1.63;;;;;;;15.13;93.32;95968.06;5135113;27;20453;-56
2023/10/06 04:36:07;;;;;;;3.03;1.00;;;;;;;15.03;94.11;95967.34;5134517;27;20458;-56
2023/10/06 04:38:38;;;;;;;4.63;2.20;;;;;;;15.15;92.70;95968.56;5134587;27;20491;-56
2023/10/06 04:41:10;;;;;;;3.23;1.43;;;;;;;14.87;94.64;95972.06;5134723;27;20961;-57
2023/10/06 04:43:44;;;;;;;0.67;0.67;;;;;;;14.74;96.60;95974.56;5134121;27;20497;-56
2023/10/06 04:46:14;;;;;;;5.37;0.87;;;;;;;14.92;94.38;95972.00;5134136;27;20486;-55
2023/10/06 04:48:43;;;;;;;1.20;1.07;;;;;;;14.98;93.76;95978.06;5134376;27;20438;-54
2023/10/06 04:51:13;;;;;;;0.87;0.87;;;;;;;14.35;98.20;95971.88;5134304;27;20949;-54
2023/10/06 04:53:45;;;;;;;0.67;0.67;;;;;;;14.20;100.00;95903.44;5133380;27;20431;-53
2023/10/06 04:56:16;;;;;;;0.90;0.90;;;;;;;14.48;98.37;95979.28;5134467;27;20445;-54
2023/10/06 04:58:45;;;;;;;2.10;2.00;;;;;;;14.42;99.17;95977.72;5134390;27;20547;-53
2023/10/06 05:01:15;;;;;;;4.30;1.33;;;;;;;14.25;99.68;95987.91;5134172;27;20442;-55
2023/10/06 05:03:45;;;;;;;11.70;1.17;;;;;;;14.15;100.00;95987.97;5133495;27;20505;-55
2023/10/06 05:06:17;;;;;;;0.60;0.50;;;;;;;13.70;100.00;95928.50;5134416;27;20435;-54
2023/10/06 05:08:47;;;;;;;6.80;0.60;;;;;;;14.91;99.76;96006.97;5134302;27;20427;-54
2023/10/06 05:11:19;;;;;;;0.70;0.63;;;;;;;15.65;97.44;96020.75;5134378;27;20456;-54
2023/10/06 05:13:49;;;;;;;0.83;0.70;;;;;;;15.69;90.32;95996.91;5134359;27;20442;-61
2023/10/06 05:16:19;;;;;;;1.67;1.40;;;;;;;16.00;93.61;96002.69;5133946;27;20438;-54
2023/10/06 05:18:48;;;;;;;0.50;0.40;;;;;;;16.15;87.34;95995.28;5133738;27;20938;-55
2023/10/06 05:21:17;;;;;;;0.40;0.30;;;;;;;16.68;89.09;96014.63;5133762;27;20496;-54
2023/10/06 05:23:45;;;;;;;0.50;0.30;;;;;;;16.64;84.35;96018.19;5133876;27;20475;-55
2023/10/06 05:26:14;;;;;;;0.50;0.40;;;;;;;16.62;82.19;96028.38;5133983;27;20438;-54
2023/10/06 05:28:47;;;;;;;1.83;1.17;;;;;;;16.53;83.19;96033.59;5133885;27;20445;-55
2023/10/06 05:31:16;;;;;;;0.63;0.63;;;;;;;16.58;82.67;96028.16;5133945;27;20526;-57
2023/10/06 05:33:45;;;;;;;0.50;0.50;;;;;;;16.55;82.92;96035.97;5133463;27;20470;-55
2023/10/06 05:36:14;;;;;;;0.83;0.83;;;;;;;16.55;83.26;96035.97;5133265;27;20474;-57
2023/10/06 05:38:48;;;;;;;0.50;0.40;;;;;;;16.85;82.04;96030.19;5133574;27;20449;-56
2023/10/06 05:41:16;;;;;;;0.40;0.30;;;;;;;16.96;81.03;96032.41;5133088;27;20474;-57
2023/10/06 05:43:48;;;;;;;1.57;0.60;;;;;;;16.63;82.15;96035.31;5133410;27;20522;-57
2023/10/06 05:46:17;;;;;;;14.97;0.57;;;;;;;16.84;81.65;96024.03;5132652;27;20439;-55
2023/10/06 05:48:46;;;;;;;0.80;0.40;;;;;;;17.03;81.47;96038.19;5132987;27;20531;-58
2023/10/06 05:51:21;;;;;;;0.50;0.30;;;;;;;17.33;80.00;96031.53;5107207;27;20434;-56
2023/10/06 05:53:51;;;;;;;1.20;1.10;;;;;;;17.12;80.40;96030.28;5132627;27;20510;-56
2023/10/06 05:56:20;;;;;;;1.57;1.47;;;;;;;17.46;78.98;96036.13;5133283;27;20473;-56
2023/10/06 05:58:51;;;;;;;0.80;0.80;;;;;;;17.99;76.18;96035.72;5132802;27;20957;-56
2023/10/06 06:01:21;;;;;;;1.03;0.83;;;;;;;18.29;75.34;96037.81;5133277;27;20541;-55
2023/10/06 06:03:51;;;;;;;0.70;0.63;;;;;;;18.64;73.24;96031.72;5132602;27;20467;-56
2023/10/06 06:06:24;;;;;;;0.63;0.43;;;;;;;18.91;70.13;96028.94;5133192;27;20438;-57
2023/10/06 06:08:53;;;;;;;2.50;1.33;;;;;;;18.68;68.95;95933.31;5132875;27;20464;-56
2023/10/06 06:11:21;;;;;;;0.77;0.67;;;;;;;19.51;68.56;96020.50;5133181;27;20522;-58
2023/10/06 06:13:52;;;;;;;4.00;1.27;;;;;;;19.51;69.00;96025.88;5132865;27;20455;-59
2023/10/06 06:16:44;;;;;;;0.70;0.60;;;;;;;19.78;66.36;96027.59;5132382;27;20442;-63
2023/10/06 06:19:13;;;;;;;0.73;0.70;;;;;;;20.11;65.42;96012.69;5132702;27;21017;-60
2023/10/06 06:21:42;;;;;;;1.73;1.70;;;;;;;20.57;65.38;96017.56;5132054;27;20442;-61
2023/10/06 06:24:10;;;;;;;0.50;0.40;;;;;;;20.57;66.16;96026.44;5133327;27;20474;-62
2023/10/06 06:26:39;;;;;;;0.57;0.40;;;;;;;20.55;63.58;96022.47;5132616;27;20824;-55
2023/10/06 06:29:09;;;;;;;7.90;1.13;;;;;;;19.92;64.76;96029.09;5132647;27;20854;-54
2023/10/06 06:31:38;;;;;;;0.50;0.40;;;;;;;20.22;64.66;96030.13;5132393;27;20518;-54
2023/10/06 06:34:07;;;;;;;1.80;1.70;;;;;;;19.75;65.62;96036.28;5132421;27;20444;-54
2023/10/06 06:36:35;;;;;;;1.00;0.83;;;;;;;19.97;64.83;96039.72;5132186;27;20930;-54
2023/10/06 06:39:04;;;;;;;0.67;0.67;;;;;;;20.07;63.24;96022.47;5132141;27;20449;-54
2023/10/06 06:41:33;;;;;;;4.43;1.10;;;;;;;20.38;63.69;96035.91;5128793;27;20484;-54
2023/10/06 06:44:01;;;;;;;1.33;1.07;;;;;;;20.67;62.55;96036.13;5132357;27;20474;-54
2023/10/06 06:46:31;;;;;;;1.83;0.67;;;;;;;21.44;60.44;96026.13;5132340;27;20446;-54
2023/10/06 06:49:01;;;;;;;1.43;1.30;;;;;;;21.32;59.69;96034.09;5132359;27;20434;-54
2023/10/06 06:51:30;;;;;;;8.07;0.90;;;;;;;22.44;63.98;96031.78;5131581;28;20444;-66
2023/10/06 06:53:59;;;;;;;1.47;1.37;;;;;;;22.82;59.34;96031.72;5132212;28;20526;-65
2023/10/06 06:56:28;;;;;;;0.80;0.80;;;;;;;23.15;56.25;96029.06;5132282;27;20513;-65
2023/10/06 06:59:00;;;;;;;0.70;0.70;;;;;;;23.53;56.43;96024.28;5136412;27;20542;-67
2023/10/06 07:01:29;;;;;;;0.63;0.43;;;;;;;24.15;55.42;96007.03;5136674;27;20445;-67
2023/10/06 07:04:00;;;;;;;0.80;0.70;;;;;;;23.71;53.57;96022.19;5136565;27;20478;-66
2023/10/06 07:06:30;;;;;;;0.87;0.80;;;;;;;23.55;53.40;96023.97;5137067;27;20438;-66
2023/10/06 07:09:00;;;;;;;0.77;0.77;;;;;;;23.44;54.41;96015.47;5136373;27;20491;-65
2023/10/06 07:11:28;;;;;;;0.97;0.50;;;;;;;24.47;54.35;96016.94;5136351;27;20466;-64
2023/10/06 07:13:57;;;;;;;1.03;0.40;;;;;;;24.74;51.92;96020.88;5137117;27;20442;-65
2023/10/06 07:16:26;;;;;;;0.60;0.60;;;;;;;23.90;53.39;96020.53;5136163;27;20529;-64
2023/10/06 07:18:54;;;;;;;1.53;1.30;;;;;;;23.41;54.11;96013.41;5136661;27;20435;-68
2023/10/06 07:21:24;;;;;;;5.13;1.20;;;;;;;23.19;55.34;96024.59;5135874;27;20778;-65
2023/10/06 07:23:56;;;;;;;1.07;0.97;;;;;;;22.73;55.53;96029.09;5135899;27;20499;-63
2023/10/06 07:26:25;;;;;;;4.53;1.00;;;;;;;22.72;58.45;96032.09;5136442;27;20442;-62
2023/10/06 07:28:55;;;;;;;0.60;0.50;;;;;;;22.48;57.06;96032.72;5136222;27;20517;-63
2023/10/06 07:31:24;;;;;;;1.20;1.10;;;;;;;22.73;58.76;96031.00;5135955;27;20494;-63
2023/10/06 07:33:54;;;;;;;2.17;2.07;;;;;;;22.25;58.14;96036.03;5136219;27;20445;-63
2023/10/06 07:36:24;;;;;;;2.40;1.40;;;;;;;22.28;59.24;96028.06;5136047;27;21004;-62
2023/10/06 07:38:53;;;;;;;0.50;0.37;;;;;;;22.57;59.30;96033.44;5136005;27;20487;-61
2023/10/06 07:41:23;;;;;;;0.80;0.70;;;;;;;22.37;56.48;96028.81;5136042;27;20517;-63
2023/10/06 07:43:52;;;;;;;2.20;1.00;;;;;;;22.32;57.13;96026.28;5135554;27;20914;-63
2023/10/06 07:46:26;;;;;;;2.00;0.87;;;;;;;22.31;56.94;95972.63;5135508;27;20435;-66
2023/10/06 07:48:55;;;;;;;0.60;0.50;;;;;;;22.77;58.41;96021.91;5135681;27;20966;-61
2023/10/06 07:51:28;;;;;;;0.70;0.50;;;;;;;22.58;58.47;96018.03;5135420;27;20434;-61
2023/10/06 07:53:59;;;;;;;0.70;0.50;;;;;;;22.66;59.11;96023.44;5134785;27;20440;-62
2023/10/06 07:56:27;;;;;;;0.80;0.80;;;;;;;22.52;58.63;96017.44;5134898;27;20434;-61
2023/10/06 07:58:56;;;;;;;3.70;0.60;;;;;;;22.48;59.14;96023.81;5135645;27;20435;-62
2023/10/06 08:01:26;;;;;;;0.87;0.50;;;;;;;22.27;59.24;96023.78;5125513;27;20491;-61
2023/10/06 08:03:54;;;;;;;0.60;0.40;;;;;;;22.22;57.26;96023.97;5128896;27;20497;-52
2023/10/06 08:06:24;;;;;;;0.60;0.50;;;;;;;22.19;57.03;96024.59;5125604;27;20906;-53
2023/10/06 08:08:53;;;;;;;0.50;0.40;;;;;;;22.10;57.61;96023.88;5134495;27;20446;-55
2023/10/06 08:11:22;;;;;;;0.63;0.63;;;;;;;21.86;59.03;96019.03;5135156;27;20953;-55
2023/10/06 08:13:52;;;;;;;0.60;0.40;;;;;;;22.07;58.42;96019.13;5134253;27;20487;-55
2023/10/06 08:16:21;;;;;;;1.00;0.47;;;;;;;22.02;58.99;96017.41;5135411;27;20434;-55
2023/10/06 08:18:49;;;;;;;0.90;0.50;;;;;;;21.90;59.54;96022.69;5134318;27;20798;-55
2023/10/06 08:21:18;;;;;;;1.20;0.60;;;;;;;21.56;59.38;96022.75;5134731;27;20449;-55
2023/10/06 08:23:47;;;;;;;4.83;1.47;;;;;;;21.44;60.79;96026.13;5108205;27;20466;-56
2023/10/06 08:26:17;;;;;;;0.60;0.60;;;;;;;21.17;61.34;96029.19;5134734;27;20439;-56
2023/10/06 08:28:49;;;;;;;1.70;1.60;;;;;;;21.18;62.31;96019.97;5134787;27;20449;-56
2023/10/06 08:31:18;;;;;;;0.47;0.40;;;;;;;21.36;62.23;96031.53;5134951;27;20438;-57
2023/10/06 08:33:47;;;;;;;1.90;0.40;;;;;;;21.75;61.68;96022.41;5134830;27;20462;-56
2023/10/06 08:36:16;;;;;;;1.10;0.50;;;;;;;21.53;62.12;96032.28;5134460;27;20499;-56
2023/10/06 08:38:46;;;;;;;0.60;0.50;;;;;;;21.40;62.36;96027.09;5135216;27;20930;-57
2023/10/06 08:41:22;;;;;;;0.80;0.60;;;;;;;21.14;63.93;95977.81;5134231;27;20494;-57
2023/10/06 08:43:53;;;;;;;3.27;0.80;;;;;;;21.40;62.62;96017.06;5134751;27;20437;-56
2023/10/06 08:46:23;;;;;;;4.00;0.50;;;;;;;21.49;64.20;96033.25;5121149;27;20443;-56
2023/10/06 08:48:52;;;;;;;0.50;0.40;;;;;;;21.34;64.97;96023.78;5133807;27;20877;-68
2023/10/06 08:51:25;;;;;;;0.87;0.87;;;;;;;21.08;64.30;95973.69;5134285;27;20966;-65
2023/10/06 08:53:57;;;;;;;0.57;0.57;;;;;;;20.96;63.43;96003.16;5133991;27;20434;-69
2023/10/06 08:56:27;;;;;;;0.87;0.87;;;;;;;21.34;62.29;96031.84;5134429;27;20431;-69
2023/10/06 08:58:56;;;;;;;0.57;0.43;;;;;;;20.80;64.39;96017.09;5134022;27;20434;-71
2023/10/06 09:01:27;;;;;;;2.20;2.00;;;;;;;20.63;65.32;96027.88;5134142;27;20506;-68
2023/10/06 09:04:02;;;;;;;0.83;0.50;;;;;;;21.01;64.54;96022.66;5133923;27;20803;-61
2023/10/06 09:06:31;;;;;;;0.70;0.70;;;;;;;20.57;67.46;96021.03;5134604;27;20434;-60
2023/10/06 09:09:01;;;;;;;0.40;0.30;;;;;;;20.63;66.80;96024.38;5134198;27;20423;-60
2023/10/06 09:11:41;;;;;;;0.73;0.73;;;;;;;20.37;68.12;96012.75;5134062;27;20499;-60
2023/10/06 09:14:11;;;;;;;0.97;0.93;;;;;;;20.09;70.20;95978.00;5134058;27;20426;-60
2023/10/06 09:17:01;;;;;;;0.50;0.30;;;;;;;20.61;70.37;96015.81;5133831;27;20768;-59
2023/10/06 09:19:47;;;;;;;2.47;0.93;;;;;;;20.46;70.56;96016.28;5133307;27;20984;-60
2023/10/06 09:22:16;;;;;;;4.10;1.27;;;;;;;19.97;70.95;95983.19;5134011;27;20814;-60
2023/10/06 09:24:59;;;;;;;0.80;0.50;;;;;;;20.39;70.50;96024.03;5134623;27;20462;-60
2023/10/06 09:27:29;;;;;;;0.50;0.40;;;;;;;20.86;69.44;96013.16;5133781;27;20537;-59
2023/10/06 09:30:01;;;;;;;0.63;0.30;;;;;;;21.14;67.41;95989.38;5133635;27;20514;-59
2023/10/06 09:32:30;;;;;;;0.40;0.30;;;;;;;20.74;71.33;95955.63;5133984;27;20438;-60
2023/10/06 09:34:58;;;;;;;0.50;0.30;;;;;;;21.52;67.00;96001.03;5133238;27;20847;-59
2023/10/06 09:37:27;;;;;;;0.50;0.37;;;;;;;21.66;69.92;96000.03;5133631;27;20435;-59
2023/10/06 09:40:10;;;;;;;0.50;0.40;;;;;;;21.89;66.07;95998.72;5119184;27;20443;-59
2023/10/06 09:42:46;;;;;;;0.50;0.40;;;;;;;22.05;64.89;95991.66;5133647;27;20522;-59
2023/10/06 09:45:18;;;;;;;1.43;1.27;;;;;;;21.47;70.98;95995.03;5133347;27;21057;-59
2023/10/06 09:47:56;;;;;;;0.80;0.50;;;;;;;21.75;68.89;95990.00;5133570;27;20925;-59
2023/10/06 09:50:26;;;;;;;0.60;0.43;;;;;;;21.11;70.79;95917.22;5133161;27;20434;-58
2023/10/06 09:52:55;;;;;;;0.70;0.60;;;;;;;21.43;71.35;95978.69;5133431;27;20435;-58
2023/10/06 09:55:25;;;;;;;1.13;0.60;;;;;;;21.39;71.32;95985.84;5132280;27;20449;-59
2023/10/06 09:57:56;;;;;;;1.43;1.33;;;;;;;21.16;74.42;95984.47;5133523;27;20442;-58
2023/10/06 10:00:29;;;;;;;6.93;2.27;;;;;;;21.06;74.57;95982.09;5132421;27;20446;-59
2023/10/06 10:02:59;;;;;;;1.80;1.70;;;;;;;21.15;74.41;95969.38;5132519;27;20470;-58
2023/10/06 10:05:29;;;;;;;0.80;0.80;;;;;;;21.42;74.60;95982.50;5132694;27;20552;-58
2023/10/06 10:07:58;;;;;;;1.10;1.00;;;;;;;21.39;74.33;95971.56;5132924;27;20442;-59
2023/10/06 10:10:34;;;;;;;0.60;0.50;;;;;;;21.42;75.49;95960.94;5132842;27;20500;-58
2023/10/06 10:13:32;;;;;;;1.70;0.80;;;;;;;21.76;73.30;95964.59;5133137;27;20446;-59
2023/10/06 10:16:13;;;;;;;0.43;0.40;;;;;;;21.86;72.06;95964.25;5111974;27;20430;-59
2023/10/06 10:18:48;;;;;;;1.37;1.27;;;;;;;21.89;71.88;95955.53;5132683;27;20434;-60
2023/10/06 10:21:17;;;;;;;1.00;0.87;;;;;;;22.04;70.01;95955.75;5133000;27;20498;-60
2023/10/06 10:23:46;;;;;;;1.27;1.17;;;;;;;22.04;69.82;95944.97;5105753;27;20463;-60
2023/10/06 10:26:22;;;;;;;2.70;1.83;;;;;;;22.04;69.09;95944.97;5132891;27;20520;-60
2023/10/06 10:29:29;;;;;;;2.70;2.60;;;;;;;21.57;71.08;95954.22;5132524;27;20931;-59
2023/10/06 10:32:13;;;;;;;2.10;1.23;;;;;;;21.62;71.32;95940.53;5132351;27;20473;-59
2023/10/06 10:35:08;;;;;;;1.57;1.47;;;;;;;21.76;71.89;95945.69;5132476;27;20438;-59
2023/10/06 10:37:59;;;;;;;2.43;1.00;;;;;;;21.78;72.94;95936.16;5131405;27;20466;-58
2023/10/06 10:40:46;;;;;;;0.80;0.67;;;;;;;22.03;73.93;95931.81;5124426;27;20817;-68
2023/10/06 10:43:38;;;;;;;1.10;1.07;;;;;;;22.13;71.74;95926.81;5131918;27;20446;-68
2023/10/06 10:46:08;;;;;;;0.60;0.60;;;;;;;21.98;74.14;95926.59;5131736;27;20470;-68
2023/10/06 10:48:38;;;;;;;0.70;0.70;;;;;;;21.45;77.71;95873.19;5132539;27;20438;-68
2023/10/06 10:51:11;;;;;;;7.87;1.47;;;;;;;21.80;76.30;95906.19;5132702;27;20430;-67
2023/10/06 10:53:43;;;;;;;1.23;0.53;;;;;;;21.90;81.04;95906.63;5132848;27;20914;-66
2023/10/06 10:56:13;;;;;;;4.63;1.23;;;;;;;21.92;75.49;95909.00;5132443;28;20435;-65
2023/10/06 10:58:58;;;;;;;0.60;0.50;;;;;;;21.79;75.18;95888.41;5131877;28;20530;-65
2023/10/06 11:01:32;;;;;;;3.50;0.70;;;;;;;21.80;79.73;95906.19;5132527;27;20517;-65
2023/10/06 11:04:34;;;;;;;1.80;0.60;;;;;;;21.40;78.29;95903.03;5117780;27;20434;-65
2023/10/06 11:07:15;;;;;;;1.57;1.47;;;;;;;21.36;81.39;95900.19;5131832;27;20480;-64
2023/10/06 11:09:48;;;;;;;1.13;1.03;;;;;;;21.58;81.87;95898.34;5131715;28;20441;-65
2023/10/06 11:12:21;;;;;;;1.80;1.30;;;;;;;21.95;81.22;95892.94;5132286;28;20435;-64
2023/10/06 11:14:55;;;;;;;1.97;1.87;;;;;;;21.80;77.96;95898.88;5132105;28;20438;-62
2023/10/06 11:17:26;;;;;;;0.90;0.87;;;;;;;22.18;76.36;95895.34;5131904;27;20440;-62
2023/10/06 11:20:12;;;;;;;1.63;0.80;;;;;;;22.11;75.47;95898.56;5132266;28;20438;-61
2023/10/06 11:22:51;;;;;;;2.37;2.17;;;;;;;21.92;77.16;95892.78;5132467;27;20467;-62
2023/10/06 11:25:27;;;;;;;2.33;2.23;;;;;;;21.61;79.04;95886.91;5131642;28;20836;-61
2023/10/06 11:28:02;;;;;;;3.43;1.23;;;;;;;21.59;79.00;95883.75;5131168;28;20468;-60
2023/10/06 11:30:32;;;;;;;6.00;2.03;;;;;;;21.68;78.49;95887.97;5131340;27;20446;-60
2023/10/06 11:33:05;;;;;;;1.80;1.57;;;;;;;21.81;76.85;95883.47;5128745;28;20472;-62
2023/10/06 11:35:36;;;;;;;3.90;2.37;;;;;;;21.47;78.07;95849.38;5125238;28;20442;-61
2023/10/06 11:38:07;;;;;;;6.90;1.47;;;;;;;21.71;78.42;95878.44;5131181;28;20450;-59
2023/10/06 11:40:36;;;;;;;0.80;0.80;;;;;;;21.89;77.32;95882.66;5131549;27;20438;-58
2023/10/06 11:43:15;;;;;;;0.90;0.67;;;;;;;21.88;77.90;95884.56;5131175;27;20517;-58
2023/10/06 11:45:44;;;;;;;4.80;1.83;;;;;;;22.30;76.78;95888.09;5135394;27;20477;-58
2023/10/06 11:48:25;;;;;;;0.70;0.70;;;;;;;22.84;73.10;95882.72;5135580;27;20442;-58
2023/10/06 11:51:06;;;;;;;0.90;0.80;;;;;;;22.36;72.62;95883.28;5135377;27;20446;-59
2023/10/06 11:53:36;;;;;;;1.90;0.57;;;;;;;22.37;73.46;95882.94;5135082;27;20434;-58
2023/10/06 11:56:07;;;;;;;0.70;0.40;;;;;;;22.52;70.63;95843.72;5135592;27;20505;-58
2023/10/06 11:58:37;;;;;;;7.20;1.03;;;;;;;22.45;69.38;95884.78;5135493;27;20430;-58